Time;durP1;ratioP1;P1;durP2;ratioP2;P2;SDS_P1;SDS_P2;PMS_P1;PMS_P2;Temp;Humidity;BMP_temperature;BMP_pressure;BME280_temperature;BME280_humidity;BME280_pressure;Samples;Min_cycle;Max_cycle;Signal;HPM_P1;HPM_P2
2022/05/27 00:00:51;;;;;;;;;;;;;;;;;;2105974;28;19959;-60
2022/05/27 00:01:52;;;;;;;;;;;;;;;;;;2105994;28;20365;-60
2022/05/27 00:02:53;;;;;;;;;;;;;;;;;;2105834;28;20357;-60
2022/05/27 00:03:54;;;;;;;;;;;;;;;;;;2105933;28;19928;-60
2022/05/27 00:04:55;;;;;;;;;;;;;;;;;;2105873;28;19920;-60
2022/05/27 00:05:56;;;;;;;;;;;;;;;;;;2105915;28;19927;-60
2022/05/27 00:06:57;;;;;;;;;;;;;;;;;;2105858;28;20014;-60
2022/05/27 00:07:58;;;;;;;;;;;;;;;;;;2105728;28;19920;-60
2022/05/27 00:08:58;;;;;;;;;;;;;;;;;;2105773;28;19927;-60
2022/05/27 00:09:59;;;;;;;;;;;;;;;;;;2105844;28;19955;-60
2022/05/27 00:11:00;;;;;;;;;;;;;;;;;;2105804;28;19920;-60
2022/05/27 00:12:01;;;;;;;;;;;;;;;;;;2105791;28;20368;-60
2022/05/27 00:13:02;;;;;;;;;;;;;;;;;;2105886;28;19943;-60
2022/05/27 00:14:03;;;;;;;;;;;;;;;;;;2105799;28;19927;-60
2022/05/27 00:15:03;;;;;;;;;;;;;;;;;;2105822;28;20392;-60
2022/05/27 00:16:04;;;;;;;;;;;;;;;;;;2105862;28;19920;-60
2022/05/27 00:17:05;;;;;;;;;;;;;;;;;;2105905;28;19924;-60
2022/05/27 00:18:06;;;;;;;;;;;;;;;;;;2105913;28;20364;-60
2022/05/27 00:19:07;;;;;;;;;;;;;;;;;;2099318;28;19920;-60
2022/05/27 00:20:08;;;;;;;;;;;;;;;;;;2097504;28;20021;-60
2022/05/27 00:21:09;;;;;;;;;;;;;;;;;;2097397;28;19954;-60
2022/05/27 00:22:10;;;;;;;;;;;;;;;;;;2097515;28;20311;-60
2022/05/27 00:23:10;;;;;;;;;;;;;;;;;;2097384;28;19921;-60
2022/05/27 00:24:11;;;;;;;;;;;;;;;;;;2101760;28;19971;-60
2022/05/27 00:25:13;;;;;;;;;;;;;;;;;;2105804;28;19923;-60
2022/05/27 00:26:14;;;;;;;;;;;;;;;;;;2105782;28;20442;-60
2022/05/27 00:27:15;;;;;;;;;;;;;;;;;;2105860;28;20010;-60
2022/05/27 00:28:16;;;;;;;;;;;;;;;;;;2105887;28;20173;-60
2022/05/27 00:29:17;;;;;;;;;;;;;;;;;;2105669;28;20010;-60
2022/05/27 00:30:19;;;;;;;;;;;;;;;;;;2105934;28;19975;-60
2022/05/27 00:31:20;;;;;;;;;;;;;;;;;;2105743;28;19975;-60
2022/05/27 00:32:21;;;;;;;;;;;;;;;;;;2105642;28;20261;-60
2022/05/27 00:33:22;;;;;;;;;;;;;;;;;;2105921;28;19970;-59
2022/05/27 00:34:23;;;;;;;;;;;;;;;;;;2105293;28;19963;-61
2022/05/27 00:35:24;;;;;;;;;;;;;;;;;;2107299;28;19919;-60
2022/05/27 00:36:25;;;;;;;;;;;;;;;;;;2107248;28;19924;-60
2022/05/27 00:37:25;;;;;;;;;;;;;;;;;;2107307;28;19932;-60
2022/05/27 00:38:26;;;;;;;;;;;;;;;;;;2107319;28;19955;-60
2022/05/27 00:39:27;;;;;;;;;;;;;;;;;;2107162;28;19920;-60
2022/05/27 00:40:28;;;;;;;;;;;;;;;;;;2107175;28;19926;-60
2022/05/27 00:41:29;;;;;;;;;;;;;;;;;;2107329;28;19924;-60
2022/05/27 00:42:30;;;;;;;;;;;;;;;;;;2107358;28;20284;-60
2022/05/27 00:43:30;;;;;;;;;;;;;;;;;;2107182;28;19920;-60
2022/05/27 00:44:32;;;;;;;;;;;;;;;;;;2107039;28;19920;-60
2022/05/27 00:45:33;;;;;;;;;;;;;;;;;;2106987;28;20403;-60
2022/05/27 00:46:34;;;;;;;;;;;;;;;;;;2107325;28;19924;-60
2022/05/27 00:47:35;;;;;;;;;;;;;;;;;;2107199;28;19994;-60
2022/05/27 00:48:36;;;;;;;;;;;;;;;;;;2107176;28;19963;-60
2022/05/27 00:49:37;;;;;;;;;;;;;;;;;;2107229;28;20375;-60
2022/05/27 00:50:38;;;;;;;;;;;;;;;;;;2107007;28;19966;-60
2022/05/27 00:51:39;;;;;;;;;;;;;;;;;;2107215;28;20006;-60
2022/05/27 00:52:40;;;;;;;;;;;;;;;;;;2106566;28;19924;-60
2022/05/27 00:53:40;;;;;;;;;;;;;;;;;;2107058;28;20001;-60
2022/05/27 00:54:41;;;;;;;;;;;;;;;;;;2107078;28;20424;-61
2022/05/27 00:55:42;;;;;;;;;;;;;;;;;;2107235;28;20144;-60
2022/05/27 00:56:43;;;;;;;;;;;;;;;;;;2106941;28;20077;-60
2022/05/27 00:57:44;;;;;;;;;;;;;;;;;;2107244;28;19959;-60
2022/05/27 00:58:45;;;;;;;;;;;;;;;;;;2106948;28;19973;-60
2022/05/27 00:59:46;;;;;;;;;;;;;;;;;;2107356;28;19924;-60
2022/05/27 01:00:47;;;;;;;;;;;;;;;;;;2107118;28;20285;-60
2022/05/27 01:01:47;;;;;;;;;;;;;;;;;;2107144;28;19945;-60
2022/05/27 01:02:49;;;;;;;;;;;;;;;;;;2106469;28;20304;-60
2022/05/27 01:03:49;;;;;;;;;;;;;;;;;;2106981;28;19978;-60
2022/05/27 01:04:50;;;;;;;;;;;;;;;;;;2107310;28;19920;-47
2022/05/27 01:05:52;;;;;;;;;;;;;;;;;;2107037;28;19924;-46
2022/05/27 01:06:53;;;;;;;;;;;;;;;;;;2107373;28;19920;-60
2022/05/27 01:07:53;;;;;;;;;;;;;;;;;;2107023;28;20014;-60
2022/05/27 01:08:54;;;;;;;;;;;;;;;;;;2106934;28;20007;-60
2022/05/27 01:09:55;;;;;;;;;;;;;;;;;;2107098;28;19981;-60
2022/05/27 01:10:56;;;;;;;;;;;;;;;;;;2107114;28;19943;-60
2022/05/27 01:11:57;;;;;;;;;;;;;;;;;;2106948;28;19924;-60
2022/05/27 01:13:00;;;;;;;;;;;;;;;;;;2106977;28;19981;-60
2022/05/27 01:14:01;;;;;;;;;;;;;;;;;;2107011;28;20348;-60
2022/05/27 01:15:02;;;;;;;;;;;;;;;;;;2106957;28;20035;-60
2022/05/27 01:16:03;;;;;;;;;;;;;;;;;;2107127;28;19920;-60
2022/05/27 01:17:04;;;;;;;;;;;;;;;;;;2106932;28;19974;-60
2022/05/27 01:18:05;;;;;;;;;;;;;;;;;;2106977;28;19920;-60
2022/05/27 01:20:25;;;;;;;;;;;;;;;;;;2102955;28;20012;-60
2022/05/27 01:21:26;;;;;;;;;;;;;;;;;;2107006;28;20335;-60
2022/05/27 01:22:27;;;;;;;;;;;;;;;;;;2107047;28;19927;-60
2022/05/27 01:23:28;;;;;;;;;;;;;;;;;;2106889;28;20007;-60
2022/05/27 01:24:29;;;;;;;;;;;;;;;;;;2107012;28;19967;-60
2022/05/27 01:25:30;;;;;;;;;;;;;;;;;;2106946;28;19920;-60
2022/05/27 01:26:31;;;;;;;;;;;;;;;;;;2106862;28;19920;-60
2022/05/27 01:27:32;;;;;;;;;;;;;;;;;;2106917;28;19967;-60
2022/05/27 01:28:32;;;;;;;;;;;;;;;;;;2106888;28;19920;-60
2022/05/27 01:29:33;;;;;;;;;;;;;;;;;;2106883;28;20015;-60
2022/05/27 01:30:34;;;;;;;;;;;;;;;;;;2106913;28;20431;-60
2022/05/27 01:31:35;;;;;;;;;;;;;;;;;;2106932;28;19955;-60
2022/05/27 01:32:36;;;;;;;;;;;;;;;;;;2107232;28;19924;-47
2022/05/27 01:33:37;;;;;;;;;;;;;;;;;;2106859;28;19928;-47
2022/05/27 01:34:38;;;;;;;;;;;;;;;;;;2106825;28;20266;-47
2022/05/27 01:35:39;;;;;;;;;;;;;;;;;;2106986;28;19924;-47
2022/05/27 01:36:40;;;;;;;;;;;;;;;;;;2106795;28;20398;-46
2022/05/27 01:37:41;;;;;;;;;;;;;;;;;;2106832;28;19941;-47
2022/05/27 01:38:42;;;;;;;;;;;;;;;;;;2106868;28;20375;-47
2022/05/27 01:39:43;;;;;;;;;;;;;;;;;;2106840;28;19935;-46
2022/05/27 01:40:43;;;;;;;;;;;;;;;;;;2106866;28;19924;-47
2022/05/27 01:41:44;;;;;;;;;;;;;;;;;;2106546;28;19927;-48
2022/05/27 01:42:45;;;;;;;;;;;;;;;;;;2106954;28;19920;-48
2022/05/27 01:43:46;;;;;;;;;;;;;;;;;;2106808;28;19924;-47
2022/05/27 01:44:47;;;;;;;;;;;;;;;;;;2106836;28;19973;-47
2022/05/27 01:45:48;;;;;;;;;;;;;;;;;;2106381;28;19955;-46
2022/05/27 01:46:49;;;;;;;;;;;;;;;;;;2106895;28;19920;-47
2022/05/27 01:47:50;;;;;;;;;;;;;;;;;;2107135;28;20308;-47
2022/05/27 01:48:50;;;;;;;;;;;;;;;;;;2106688;28;20011;-46
2022/05/27 01:49:51;;;;;;;;;;;;;;;;;;2106894;28;19947;-47
2022/05/27 01:50:52;;;;;;;;;;;;;;;;;;2106750;28;19920;-46
2022/05/27 01:51:53;;;;;;;;;;;;;;;;;;2106926;28;19924;-46
2022/05/27 01:52:54;;;;;;;;;;;;;;;;;;2106704;28;20459;-46
2022/05/27 01:53:56;;;;;;;;;;;;;;;;;;2106688;28;19927;-47
2022/05/27 01:54:57;;;;;;;;;;;;;;;;;;2106884;28;19920;-60
2022/05/27 01:55:58;;;;;;;;;;;;;;;;;;2107093;28;19924;-46
2022/05/27 01:56:59;;;;;;;;;;;;;;;;;;2106624;28;20308;-47
2022/05/27 01:58:00;;;;;;;;;;;;;;;;;;2106896;28;19966;-46
2022/05/27 01:59:01;;;;;;;;;;;;;;;;;;2106614;28;20010;-47
2022/05/27 02:00:02;;;;;;;;;;;;;;;;;;2106696;28;19942;-47
2022/05/27 02:01:02;;;;;;;;;;;;;;;;;;2106828;28;20010;-47
2022/05/27 02:02:03;;;;;;;;;;;;;;;;;;2106744;28;20377;-47
2022/05/27 02:03:04;;;;;;;;;;;;;;;;;;2106918;28;19920;-47
2022/05/27 02:04:05;;;;;;;;;;;;;;;;;;2106660;28;19920;-46
2022/05/27 02:05:06;;;;;;;;;;;;;;;;;;2106854;28;20014;-46
2022/05/27 02:06:07;;;;;;;;;;;;;;;;;;2106740;28;19955;-48
2022/05/27 02:07:08;;;;;;;;;;;;;;;;;;2106792;28;20293;-46
2022/05/27 02:08:09;;;;;;;;;;;;;;;;;;2106711;28;19951;-46
2022/05/27 02:09:09;;;;;;;;;;;;;;;;;;2106628;28;20010;-46
2022/05/27 02:10:10;;;;;;;;;;;;;;;;;;2106927;28;20011;-60
2022/05/27 02:11:11;;;;;;;;;;;;;;;;;;2106578;28;19920;-60
2022/05/27 02:12:12;;;;;;;;;;;;;;;;;;2106840;28;20418;-60
2022/05/27 02:13:13;;;;;;;;;;;;;;;;;;2106724;28;19920;-60
2022/05/27 02:14:14;;;;;;;;;;;;;;;;;;2106614;28;19920;-60
2022/05/27 02:15:14;;;;;;;;;;;;;;;;;;2106636;28;19927;-60
2022/05/27 02:16:15;;;;;;;;;;;;;;;;;;2106626;28;19962;-60
2022/05/27 02:17:16;;;;;;;;;;;;;;;;;;2106563;28;20287;-60
2022/05/27 02:18:17;;;;;;;;;;;;;;;;;;2106722;28;19962;-60
2022/05/27 02:19:18;;;;;;;;;;;;;;;;;;2098791;28;19956;-60
2022/05/27 02:20:19;;;;;;;;;;;;;;;;;;2098178;28;19967;-60
2022/05/27 02:21:20;;;;;;;;;;;;;;;;;;2098277;28;19932;-60
2022/05/27 02:22:21;;;;;;;;;;;;;;;;;;2098227;28;19920;-60
2022/05/27 02:23:21;;;;;;;;;;;;;;;;;;2098369;28;19952;-60
2022/05/27 02:24:22;;;;;;;;;;;;;;;;;;2098232;28;19921;-60
2022/05/27 02:25:23;;;;;;;;;;;;;;;;;;2098199;28;19920;-60
2022/05/27 02:26:24;;;;;;;;;;;;;;;;;;2098125;28;19924;-60
2022/05/27 02:27:25;;;;;;;;;;;;;;;;;;2098245;28;19931;-60
2022/05/27 02:28:26;;;;;;;;;;;;;;;;;;2098294;28;19974;-60
2022/05/27 02:29:27;;;;;;;;;;;;;;;;;;2098027;28;19921;-59
2022/05/27 02:30:29;;;;;;;;;;;;;;;;;;2098273;28;20015;-60
2022/05/27 02:31:30;;;;;;;;;;;;;;;;;;2098119;28;20177;-60
2022/05/27 02:32:31;;;;;;;;;;;;;;;;;;2098374;28;19921;-60
2022/05/27 02:35:09;;;;;;;;;;;;;;;;;;2097999;28;20010;-60
2022/05/27 02:36:10;;;;;;;;;;;;;;;;;;2098157;28;19924;-60
2022/05/27 02:37:10;;;;;;;;;;;;;;;;;;2097945;28;20050;-60
2022/05/27 02:38:11;;;;;;;;;;;;;;;;;;2103270;28;20364;-60
2022/05/27 02:39:12;;;;;;;;;;;;;;;;;;2105924;28;20006;-60
2022/05/27 02:40:13;;;;;;;;;;;;;;;;;;2106464;28;20357;-60
2022/05/27 02:41:14;;;;;;;;;;;;;;;;;;2106498;28;19920;-60
2022/05/27 02:42:15;;;;;;;;;;;;;;;;;;2106449;28;19920;-60
2022/05/27 02:43:16;;;;;;;;;;;;;;;;;;2106662;28;19926;-60
2022/05/27 02:44:17;;;;;;;;;;;;;;;;;;2106632;28;19939;-60
2022/05/27 02:45:18;;;;;;;;;;;;;;;;;;2106389;28;20027;-60
2022/05/27 02:46:19;;;;;;;;;;;;;;;;;;2106577;28;19967;-60
2022/05/27 02:47:20;;;;;;;;;;;;;;;;;;2106354;28;19927;-60
2022/05/27 02:48:21;;;;;;;;;;;;;;;;;;2106331;28;20014;-60
2022/05/27 02:49:22;;;;;;;;;;;;;;;;;;2106356;28;19955;-60
2022/05/27 02:50:25;;;;;;;;;;;;;;;;;;2106493;28;20003;-60
2022/05/27 02:51:26;;;;;;;;;;;;;;;;;;2106417;28;19965;-60
2022/05/27 02:52:26;;;;;;;;;;;;;;;;;;2106386;28;19924;-60
2022/05/27 02:53:28;;;;;;;;;;;;;;;;;;2106428;28;19959;-60
2022/05/27 02:54:28;;;;;;;;;;;;;;;;;;2106295;28;20022;-60
2022/05/27 02:55:29;;;;;;;;;;;;;;;;;;2106366;28;19976;-60
2022/05/27 02:56:30;;;;;;;;;;;;;;;;;;2106225;28;19973;-60
2022/05/27 02:57:31;;;;;;;;;;;;;;;;;;2105412;28;20381;-60
2022/05/27 02:58:32;;;;;;;;;;;;;;;;;;2106266;28;19920;-60
2022/05/27 02:59:32;;;;;;;;;;;;;;;;;;2106300;28;19924;-60
2022/05/27 03:00:33;;;;;;;;;;;;;;;;;;2106296;28;20003;-60
2022/05/27 03:01:34;;;;;;;;;;;;;;;;;;2106463;28;20073;-60
2022/05/27 03:02:35;;;;;;;;;;;;;;;;;;2106286;28;19989;-60
2022/05/27 03:03:36;;;;;;;;;;;;;;;;;;2106481;28;20281;-60
2022/05/27 03:04:37;;;;;;;;;;;;;;;;;;2106360;28;20329;-60
2022/05/27 03:05:38;;;;;;;;;;;;;;;;;;2106428;28;19973;-60
2022/05/27 03:06:39;;;;;;;;;;;;;;;;;;2106296;28;19927;-60
2022/05/27 03:07:40;;;;;;;;;;;;;;;;;;2106259;28;19927;-60
2022/05/27 03:08:40;;;;;;;;;;;;;;;;;;2106208;28;19920;-60
2022/05/27 03:09:41;;;;;;;;;;;;;;;;;;2106551;28;19955;-46
2022/05/27 03:10:43;;;;;;;;;;;;;;;;;;2106340;28;19920;-47
2022/05/27 03:11:44;;;;;;;;;;;;;;;;;;2106269;28;19920;-49
2022/05/27 03:12:44;;;;;;;;;;;;;;;;;;2106240;28;19927;-47
2022/05/27 03:13:45;;;;;;;;;;;;;;;;;;2106351;28;19920;-47
2022/05/27 03:14:46;;;;;;;;;;;;;;;;;;2106325;28;19924;-49
2022/05/27 03:15:50;;;;;;;;;;;;;;;;;;2106232;28;19920;-47
2022/05/27 03:16:51;;;;;;;;;;;;;;;;;;2106198;28;20068;-47
2022/05/27 03:17:52;;;;;;;;;;;;;;;;;;2106305;28;19920;-46
2022/05/27 03:18:53;;;;;;;;;;;;;;;;;;2101683;28;19923;-47
2022/05/27 03:19:54;;;;;;;;;;;;;;;;;;2097810;28;20377;-46
2022/05/27 03:20:54;;;;;;;;;;;;;;;;;;2097734;28;20421;-48
2022/05/27 03:21:55;;;;;;;;;;;;;;;;;;2097992;28;19920;-47
2022/05/27 03:22:56;;;;;;;;;;;;;;;;;;2097922;28;20046;-46
2022/05/27 03:23:57;;;;;;;;;;;;;;;;;;2097713;28;20382;-47
2022/05/27 03:24:58;;;;;;;;;;;;;;;;;;2097751;28;19927;-46
2022/05/27 03:25:59;;;;;;;;;;;;;;;;;;2097745;28;20282;-47
2022/05/27 03:27:00;;;;;;;;;;;;;;;;;;2097818;28;19924;-47
2022/05/27 03:28:01;;;;;;;;;;;;;;;;;;2097629;28;19920;-46
2022/05/27 03:29:01;;;;;;;;;;;;;;;;;;2105024;28;19920;-47
2022/05/27 03:30:02;;;;;;;;;;;;;;;;;;2106495;28;20031;-60
2022/05/27 03:31:03;;;;;;;;;;;;;;;;;;2106235;28;20439;-59
2022/05/27 03:32:04;;;;;;;;;;;;;;;;;;2106181;28;19959;-60
2022/05/27 03:33:05;;;;;;;;;;;;;;;;;;2106220;28;20357;-60
2022/05/27 03:34:06;;;;;;;;;;;;;;;;;;2103305;28;19954;-60
2022/05/27 03:35:07;;;;;;;;;;;;;;;;;;2097838;28;19975;-60
2022/05/27 03:36:08;;;;;;;;;;;;;;;;;;2097880;28;19925;-60
2022/05/27 03:37:08;;;;;;;;;;;;;;;;;;2098010;28;19935;-60
2022/05/27 03:38:10;;;;;;;;;;;;;;;;;;2097873;28;20364;-60
2022/05/27 03:39:11;;;;;;;;;;;;;;;;;;2097682;28;19921;-60
2022/05/27 03:40:12;;;;;;;;;;;;;;;;;;2097816;28;19920;-60
2022/05/27 03:41:12;;;;;;;;;;;;;;;;;;2097754;28;20012;-60
2022/05/27 03:42:13;;;;;;;;;;;;;;;;;;2097706;28;20359;-60
2022/05/27 03:43:14;;;;;;;;;;;;;;;;;;2097765;28;19964;-60
2022/05/27 03:44:15;;;;;;;;;;;;;;;;;;2097670;28;19927;-60
2022/05/27 03:45:16;;;;;;;;;;;;;;;;;;2097737;28;19974;-60
2022/05/27 03:46:17;;;;;;;;;;;;;;;;;;2097862;28;19956;-60
2022/05/27 03:47:18;;;;;;;;;;;;;;;;;;2097786;28;19920;-60
2022/05/27 03:48:19;;;;;;;;;;;;;;;;;;2097780;28;20006;-60
2022/05/27 03:49:19;;;;;;;;;;;;;;;;;;2097736;28;20297;-60
2022/05/27 03:50:20;;;;;;;;;;;;;;;;;;2097670;28;19920;-60
2022/05/27 03:51:21;;;;;;;;;;;;;;;;;;2097731;28;20011;-60
2022/05/27 03:52:22;;;;;;;;;;;;;;;;;;2097669;28;19989;-60
2022/05/27 03:54:03;;;;;;;;;;;;;;;;;;2097642;28;19921;-60
2022/05/27 03:54:44;;;;;;;;;;;;;;;;;;2097662;28;20543;-60
2022/05/27 03:55:45;;;;;;;;;;;;;;;;;;2097754;28;19999;-60
2022/05/27 03:56:46;;;;;;;;;;;;;;;;;;2097631;28;19930;-60
2022/05/27 03:57:48;;;;;;;;;;;;;;;;;;2097747;28;19921;-60
2022/05/27 03:58:49;;;;;;;;;;;;;;;;;;2097582;28;19999;-60
2022/05/27 03:59:50;;;;;;;;;;;;;;;;;;2097772;28;19998;-60
2022/05/27 04:00:50;;;;;;;;;;;;;;;;;;2097570;28;19966;-60
2022/05/27 04:01:51;;;;;;;;;;;;;;;;;;2097911;28;19921;-60
2022/05/27 04:02:52;;;;;;;;;;;;;;;;;;2097562;28;19943;-60
2022/05/27 04:03:58;;;;;;;;;;;;;;;;;;2097497;28;19920;-60
2022/05/27 04:04:59;;;;;;;;;;;;;;;;;;2097566;28;20289;-60
2022/05/27 04:06:00;;;;;;;;;;;;;;;;;;2097515;28;19985;-60
2022/05/27 04:07:01;;;;;;;;;;;;;;;;;;2097760;28;19995;-60
2022/05/27 04:08:02;;;;;;;;;;;;;;;;;;2097625;28;20050;-60
2022/05/27 04:09:03;;;;;;;;;;;;;;;;;;2102068;28;20319;-60
2022/05/27 04:10:04;;;;;;;;;;;;;;;;;;2107487;28;20292;-60
2022/05/27 04:11:05;;;;;;;;;;;;;;;;;;2107398;28;19974;-60
2022/05/27 04:12:06;;;;;;;;;;;;;;;;;;2107382;28;20292;-60
2022/05/27 04:13:07;;;;;;;;;;;;;;;;;;2107434;28;19959;-60
2022/05/27 04:14:07;;;;;;;;;;;;;;;;;;2107383;28;19951;-60
2022/05/27 04:15:08;;;;;;;;;;;;;;;;;;2105187;28;20014;-60
2022/05/27 04:16:09;;;;;;;;;;;;;;;;;;2099149;28;19935;-59
2022/05/27 04:17:30;;;;;;;;;;;;;;;;;;2098288;28;19928;-60
2022/05/27 04:18:31;;;;;;;;;;;;;;;;;;2100027;28;20002;-61
2022/05/27 04:19:32;;;;;;;;;;;;;;;;;;2107244;28;19989;-60
2022/05/27 04:20:32;;;;;;;;;;;;;;;;;;2107572;28;19920;-60
2022/05/27 04:21:33;;;;;;;;;;;;;;;;;;2107322;28;19969;-60
2022/05/27 04:22:34;;;;;;;;;;;;;;;;;;2107518;28;19974;-60
2022/05/27 04:23:35;;;;;;;;;;;;;;;;;;2107203;28;20015;-60
2022/05/27 04:24:36;;;;;;;;;;;;;;;;;;2107426;28;19923;-60
2022/05/27 04:25:38;;;;;;;;;;;;;;;;;;2107249;28;20391;-60
2022/05/27 04:26:39;;;;;;;;;;;;;;;;;;2106499;28;19964;-60
2022/05/27 04:27:40;;;;;;;;;;;;;;;;;;2107294;28;19987;-60
2022/05/27 04:28:40;;;;;;;;;;;;;;;;;;2107426;28;19920;-60
2022/05/27 04:29:41;;;;;;;;;;;;;;;;;;2107342;28;20329;-60
2022/05/27 04:30:42;;;;;;;;;;;;;;;;;;2107051;28;19970;-60
2022/05/27 04:31:43;;;;;;;;;;;;;;;;;;2107279;28;19970;-60
2022/05/27 04:32:44;;;;;;;;;;;;;;;;;;2107342;28;19920;-60
2022/05/27 04:33:45;;;;;;;;;;;;;;;;;;2107169;28;19927;-61
2022/05/27 04:34:45;;;;;;;;;;;;;;;;;;2107255;28;20426;-60
2022/05/27 04:35:46;;;;;;;;;;;;;;;;;;2107223;28;19931;-60
2022/05/27 04:36:47;;;;;;;;;;;;;;;;;;2107316;28;20368;-60
2022/05/27 04:37:48;;;;;;;;;;;;;;;;;;2107357;28;19920;-60
2022/05/27 04:38:49;;;;;;;;;;;;;;;;;;2107161;28;19935;-60
2022/05/27 04:39:50;;;;;;;;;;;;;;;;;;2107145;28;19923;-60
2022/05/27 04:40:51;;;;;;;;;;;;;;;;;;2107236;28;19969;-60
2022/05/27 04:41:52;;;;;;;;;;;;;;;;;;2107186;28;19974;-47
2022/05/27 04:42:53;;;;;;;;;;;;;;;;;;2107301;28;19919;-48
2022/05/27 04:43:54;;;;;;;;;;;;;;;;;;2107098;28;19947;-48
2022/05/27 04:44:55;;;;;;;;;;;;;;;;;;2107363;28;19927;-47
2022/05/27 04:45:56;;;;;;;;;;;;;;;;;;2107364;28;19920;-46
2022/05/27 04:46:57;;;;;;;;;;;;;;;;;;2107170;28;20609;-47
2022/05/27 04:47:58;;;;;;;;;;;;;;;;;;2107144;28;19920;-47
2022/05/27 04:48:59;;;;;;;;;;;;;;;;;;2107280;28;19927;-47
2022/05/27 04:49:59;;;;;;;;;;;;;;;;;;2107158;28;19924;-48
2022/05/27 04:51:00;;;;;;;;;;;;;;;;;;2107089;28;19920;-46
2022/05/27 04:52:01;;;;;;;;;;;;;;;;;;2107247;28;19920;-47
2022/05/27 04:53:02;;;;;;;;;;;;;;;;;;2107183;28;19924;-47
2022/05/27 04:54:03;;;;;;;;;;;;;;;;;;2107064;28;19943;-48
2022/05/27 04:55:04;;;;;;;;;;;;;;;;;;2107190;28;19920;-46
2022/05/27 04:56:05;;;;;;;;;;;;;;;;;;2107304;28;19924;-46
2022/05/27 04:57:06;;;;;;;;;;;;;;;;;;2107009;28;19924;-47
2022/05/27 04:58:06;;;;;;;;;;;;;;;;;;2107231;28;20014;-46
2022/05/27 04:59:07;;;;;;;;;;;;;;;;;;2107142;28;20014;-46
2022/05/27 05:00:08;;;;;;;;;;;;;;;;;;2107032;28;20216;-47
2022/05/27 05:01:09;;;;;;;;;;;;;;;;;;2107233;28;19947;-46
2022/05/27 05:02:10;;;;;;;;;;;;;;;;;;2107140;28;19924;-47
2022/05/27 05:03:11;;;;;;;;;;;;;;;;;;2107213;28;19927;-47
2022/05/27 05:04:11;;;;;;;;;;;;;;;;;;2107090;28;19920;-47
2022/05/27 05:05:13;;;;;;;;;;;;;;;;;;2107086;28;20380;-47
2022/05/27 05:06:14;;;;;;;;;;;;;;;;;;2106968;28;20390;-48
2022/05/27 05:07:15;;;;;;;;;;;;;;;;;;2107134;28;19936;-47
2022/05/27 05:08:16;;;;;;;;;;;;;;;;;;2107199;28;19920;-46
2022/05/27 05:09:16;;;;;;;;;;;;;;;;;;2106942;28;20022;-47
2022/05/27 05:10:17;;;;;;;;;;;;;;;;;;2107158;28;19959;-46
2022/05/27 05:11:18;;;;;;;;;;;;;;;;;;2106956;28;19966;-46
2022/05/27 05:12:22;;;;;;;;;;;;;;;;;;2107092;28;19927;-46
2022/05/27 05:13:23;;;;;;;;;;;;;;;;;;2106934;28;20003;-47
2022/05/27 05:14:24;;;;;;;;;;;;;;;;;;2106892;28;19920;-46
2022/05/27 05:15:25;;;;;;;;;;;;;;;;;;2106927;28;20441;-47
2022/05/27 05:16:26;;;;;;;;;;;;;;;;;;2107022;28;19920;-46
2022/05/27 05:17:27;;;;;;;;;;;;;;;;;;2107239;28;19974;-47
2022/05/27 05:18:27;;;;;;;;;;;;;;;;;;2106035;28;20365;-47
2022/05/27 05:19:28;;;;;;;;;;;;;;;;;;2098656;28;19959;-46
2022/05/27 05:20:29;;;;;;;;;;;;;;;;;;2097652;28;19920;-46
2022/05/27 05:21:31;;;;;;;;;;;;;;;;;;2098662;28;19939;-46
2022/05/27 05:22:31;;;;;;;;;;;;;;;;;;2098551;28;20360;-46
2022/05/27 05:23:32;;;;;;;;;;;;;;;;;;2098607;28;20013;-48
2022/05/27 05:24:33;;;;;;;;;;;;;;;;;;2098403;28;19921;-47
2022/05/27 05:25:34;;;;;;;;;;;;;;;;;;2098634;28;19967;-46
2022/05/27 05:26:35;;;;;;;;;;;;;;;;;;2100158;28;19932;-47
2022/05/27 05:27:38;;;;;;;;;;;;;;;;;;2107030;28;20027;-47
2022/05/27 05:28:39;;;;;;;;;;;;;;;;;;2106764;28;20409;-46
2022/05/27 05:29:40;;;;;;;;;;;;;;;;;;2107196;28;20439;-47
2022/05/27 05:30:41;;;;;;;;;;;;;;;;;;2106942;28;19920;-47
2022/05/27 05:31:42;;;;;;;;;;;;;;;;;;2107051;28;20392;-47
2022/05/27 05:32:43;;;;;;;;;;;;;;;;;;2107001;28;19927;-46
2022/05/27 05:33:44;;;;;;;;;;;;;;;;;;2106769;28;19943;-46
2022/05/27 05:34:44;;;;;;;;;;;;;;;;;;2107033;28;19920;-47
2022/05/27 05:35:46;;;;;;;;;;;;;;;;;;2106870;28;20261;-47
2022/05/27 05:36:47;;;;;;;;;;;;;;;;;;2106959;28;20014;-46
2022/05/27 05:37:48;;;;;;;;;;;;;;;;;;2106747;28;19943;-46
2022/05/27 05:38:49;;;;;;;;;;;;;;;;;;2106897;28;20004;-46
2022/05/27 05:39:49;;;;;;;;;;;;;;;;;;2106754;28;19920;-46
2022/05/27 05:40:50;;;;;;;;;;;;;;;;;;2106869;28;19931;-46
2022/05/27 05:41:51;;;;;;;;;;;;;;;;;;2106925;28;19920;-49
2022/05/27 05:42:52;;;;;;;;;;;;;;;;;;2106176;28;20010;-46
2022/05/27 05:43:53;;;;;;;;;;;;;;;;;;2106733;28;20281;-46
2022/05/27 05:44:55;;;;;;;;;;;;;;;;;;2106958;28;20001;-46
2022/05/27 05:45:56;;;;;;;;;;;;;;;;;;2106771;28;19962;-47
2022/05/27 05:46:57;;;;;;;;;;;;;;;;;;2106876;28;19952;-46
2022/05/27 05:47:58;;;;;;;;;;;;;;;;;;2106778;28;20140;-47
2022/05/27 05:48:59;;;;;;;;;;;;;;;;;;2106825;28;20215;-46
2022/05/27 05:50:00;;;;;;;;;;;;;;;;;;2107004;28;19924;-47
2022/05/27 05:51:01;;;;;;;;;;;;;;;;;;2106910;28;19920;-46
2022/05/27 05:52:01;;;;;;;;;;;;;;;;;;2106803;28;19966;-47
2022/05/27 05:53:02;;;;;;;;;;;;;;;;;;2106973;28;20257;-47
2022/05/27 05:54:03;;;;;;;;;;;;;;;;;;2106894;28;19924;-46
2022/05/27 05:55:04;;;;;;;;;;;;;;;;;;2106841;28;19971;-46
2022/05/27 05:56:05;;;;;;;;;;;;;;;;;;2106973;28;19924;-60
2022/05/27 05:57:06;;;;;;;;;;;;;;;;;;2106635;28;19928;-60
2022/05/27 05:58:07;;;;;;;;;;;;;;;;;;2106663;28;19964;-60
2022/05/27 05:59:08;;;;;;;;;;;;;;;;;;2106643;28;20007;-60
2022/05/27 06:00:08;;;;;;;;;;;;;;;;;;2106663;28;19920;-60
2022/05/27 06:01:09;;;;;;;;;;;;;;;;;;2106645;28;19972;-60
2022/05/27 06:02:10;;;;;;;;;;;;;;;;;;2098468;28;19931;-60
2022/05/27 06:03:11;;;;;;;;;;;;;;;;;;2098276;28;19967;-60
2022/05/27 06:04:12;;;;;;;;;;;;;;;;;;2098374;28;20003;-60
2022/05/27 06:05:13;;;;;;;;;;;;;;;;;;2098315;28;20438;-60
2022/05/27 06:06:14;;;;;;;;;;;;;;;;;;2098394;28;19967;-60
2022/05/27 06:07:15;;;;;;;;;;;;;;;;;;2098386;28;20261;-60
2022/05/27 06:08:15;;;;;;;;;;;;;;;;;;2098615;28;19927;-47
2022/05/27 06:09:17;;;;;;;;;;;;;;;;;;2098255;28;20381;-47
2022/05/27 06:10:19;;;;;;;;;;;;;;;;;;2090021;28;20441;-46
2022/05/27 06:11:21;;;;;;;;;;;;;;;;;;2090327;28;20011;-47
2022/05/27 06:12:23;;;;;;;;;;;;;;;;;;2098354;28;20010;-46
2022/05/27 06:13:26;;;;;;;;;;;;;;;;;;2098415;28;20042;-46
2022/05/27 06:14:28;;;;;;;;;;;;;;;;;;2098127;28;20062;-46
2022/05/27 06:15:28;;;;;;;;;;;;;;;;;;2098772;28;20022;-60
2022/05/27 06:16:29;;;;;;;;;;;;;;;;;;2098249;28;19952;-60
2022/05/27 06:17:30;;;;;;;;;;;;;;;;;;2098276;28;19932;-60
2022/05/27 06:18:31;;;;;;;;;;;;;;;;;;2099428;28;19966;-60
2022/05/27 06:19:32;;;;;;;;;;;;;;;;;;2106533;28;20023;-60
2022/05/27 06:20:33;;;;;;;;;;;;;;;;;;2106574;28;19963;-61
2022/05/27 06:21:34;;;;;;;;;;;;;;;;;;2106673;28;19927;-60
2022/05/27 06:22:35;;;;;;;;;;;;;;;;;;2106279;28;20076;-61
2022/05/27 06:23:35;;;;;;;;;;;;;;;;;;2106597;28;19972;-60
2022/05/27 06:24:36;;;;;;;;;;;;;;;;;;2106723;28;19920;-61
2022/05/27 06:25:38;;;;;;;;;;;;;;;;;;2106514;28;19920;-60
2022/05/27 06:26:39;;;;;;;;;;;;;;;;;;2106438;28;20027;-60
2022/05/27 06:27:40;;;;;;;;;;;;;;;;;;2105836;28;19930;-60
2022/05/27 06:35:17;;;;;;;;;;;;;;;;;;2106657;28;20487;-46
2022/05/27 06:36:18;;;;;;;;;;;;;;;;;;2106536;28;19920;-46
2022/05/27 06:37:19;;;;;;;;;;;;;;;;;;2098185;28;19963;-47
2022/05/27 06:38:20;;;;;;;;;;;;;;;;;;2098396;28;20388;-47
2022/05/27 06:39:21;;;;;;;;;;;;;;;;;;2106477;28;19970;-46
2022/05/27 06:40:22;;;;;;;;;;;;;;;;;;2106459;28;20005;-47
2022/05/27 06:41:22;;;;;;;;;;;;;;;;;;2106458;28;20392;-47
2022/05/27 06:42:23;;;;;;;;;;;;;;;;;;2106756;28;19959;-48
2022/05/27 06:43:40;;;;;;;;;;;;;;;;;;2106396;28;19919;-46
2022/05/27 06:44:41;;;;;;;;;;;;;;;;;;2106456;28;19924;-46
2022/05/27 06:45:42;;;;;;;;;;;;;;;;;;2106249;28;19920;-49
2022/05/27 06:46:42;;;;;;;;;;;;;;;;;;2106507;28;19919;-46
2022/05/27 06:47:43;;;;;;;;;;;;;;;;;;2105754;28;19920;-47
2022/05/27 06:48:44;;;;;;;;;;;;;;;;;;2106507;28;19927;-46
2022/05/27 06:49:45;;;;;;;;;;;;;;;;;;2106390;28;19963;-47
2022/05/27 06:50:46;;;;;;;;;;;;;;;;;;2106686;28;20006;-61
2022/05/27 06:51:47;;;;;;;;;;;;;;;;;;2106557;28;19976;-47
2022/05/27 06:52:50;;;;;;;;;;;;;;;;;;2106603;28;19927;-60
2022/05/27 06:53:51;;;;;;;;;;;;;;;;;;2106436;28;19966;-61
2022/05/27 06:54:52;;;;;;;;;;;;;;;;;;2106281;28;19935;-60
2022/05/27 06:55:53;;;;;;;;;;;;;;;;;;2106284;28;20388;-60
2022/05/27 06:56:56;;;;;;;;;;;;;;;;;;2106282;28;19920;-60
2022/05/27 06:57:57;;;;;;;;;;;;;;;;;;2106152;28;20293;-60
2022/05/27 06:58:58;;;;;;;;;;;;;;;;;;2106274;28;19927;-60
2022/05/27 07:00:00;;;;;;;;;;;;;;;;;;2106236;28;19956;-61
2022/05/27 07:01:00;;;;;;;;;;;;;;;;;;2106216;28;20357;-60
2022/05/27 07:02:01;;;;;;;;;;;;;;;;;;2106821;28;19978;-60
2022/05/27 07:03:04;;;;;;;;;;;;;;;;;;2106265;28;19947;-61
2022/05/27 07:04:05;;;;;;;;;;;;;;;;;;2106336;28;19920;-60
2022/05/27 07:05:06;;;;;;;;;;;;;;;;;;2106396;28;19963;-60
2022/05/27 07:06:07;;;;;;;;;;;;;;;;;;2106250;28;20297;-60
2022/05/27 07:07:08;;;;;;;;;;;;;;;;;;2106263;28;19981;-60